createdAt,value
2023-01-11T00:00:18.854Z,83.21
2023-01-11T00:02:49.774Z,83.53
2023-01-11T00:05:19.883Z,83.94
2023-01-11T00:07:50.204Z,84.00
2023-01-11T00:10:21.657Z,84.54
2023-01-11T00:12:52.154Z,84.64
2023-01-11T00:15:22.275Z,85.03
2023-01-11T00:17:52.663Z,85.02
2023-01-11T00:20:22.885Z,84.99
2023-01-11T00:22:53.415Z,84.92
2023-01-11T00:25:23.655Z,84.62
2023-01-11T00:27:54.028Z,84.49
2023-01-11T00:30:24.489Z,84.18
2023-01-11T00:33:03.656Z,84.12
2023-01-11T00:35:49.024Z,84.46
2023-01-11T00:38:54.214Z,84.16
2023-01-11T00:41:52.687Z,83.62
2023-01-11T00:44:44.650Z,83.03
2023-01-11T00:47:39.347Z,81.79
2023-01-11T00:50:10.386Z,81.39
2023-01-11T00:52:40.678Z,80.40
2023-01-11T00:55:13.322Z,79.73
2023-01-11T00:57:44.272Z,78.14
2023-01-11T01:00:15.253Z,77.98
2023-01-11T01:02:46.652Z,77.77
2023-01-11T01:05:19.916Z,77.12
2023-01-11T01:07:52.986Z,75.93
2023-01-11T01:10:23.778Z,74.66
2023-01-11T01:13:12.736Z,74.45
2023-01-11T01:15:44.834Z,74.78
2023-01-11T01:18:20.017Z,74.79
2023-01-11T01:20:55.491Z,74.67
2023-01-11T01:23:27.560Z,74.98
2023-01-11T01:25:58.900Z,73.47
2023-01-11T01:28:29.464Z,73.88
2023-01-11T01:30:59.974Z,72.46
2023-01-11T01:33:30.299Z,73.41
2023-01-11T01:36:02.403Z,72.50
2023-01-11T01:38:33.012Z,72.61
2023-01-11T01:41:04.172Z,72.64
2023-01-11T01:43:55.142Z,73.96
2023-01-11T01:46:29.736Z,73.02
2023-01-11T01:49:20.226Z,73.12
2023-01-11T01:51:59.844Z,71.26
2023-01-11T01:54:35.384Z,68.78
2023-01-11T01:57:12.626Z,67.56
2023-01-11T01:59:43.373Z,66.16
2023-01-11T02:02:15.154Z,65.76
2023-01-11T02:04:55.697Z,66.75
2023-01-11T02:07:41.482Z,67.03
2023-01-11T02:10:55.993Z,68.35
2023-01-11T02:13:49.424Z,65.90
2023-01-11T02:16:44.845Z,65.40
2023-01-11T02:19:40.644Z,66.05
2023-01-11T02:22:24.711Z,69.07
2023-01-11T02:25:06.791Z,72.69
2023-01-11T02:28:04.660Z,74.23
2023-01-11T02:30:54.272Z,75.04
2023-01-11T02:33:50.103Z,73.18
2023-01-11T02:36:45.142Z,74.11
2023-01-11T02:39:35.570Z,75.65
2023-01-11T02:42:45.938Z,75.29
2023-01-11T02:45:34.258Z,73.99
2023-01-11T02:48:37.506Z,72.38
2023-01-11T02:51:50.750Z,69.61
2023-01-11T02:54:34.272Z,67.83
2023-01-11T02:57:10.439Z,68.04
2023-01-11T02:59:52.468Z,68.42
2023-01-11T03:02:23.943Z,67.29
2023-01-11T03:04:54.679Z,65.93
2023-01-11T03:07:50.354Z,66.34
2023-01-11T03:10:58.569Z,66.14
2023-01-11T03:14:00.683Z,66.27
2023-01-11T03:17:00.018Z,66.62
2023-01-11T03:19:53.986Z,67.18
2023-01-11T03:22:39.950Z,67.30
2023-01-11T03:25:33.511Z,68.08
2023-01-11T03:28:29.367Z,68.57
2023-01-11T03:31:28.951Z,67.78
2023-01-11T03:34:13.855Z,68.92
2023-01-11T03:36:50.645Z,69.69
2023-01-11T03:39:30.708Z,69.32
2023-01-11T03:42:10.888Z,70.97
2023-01-11T03:44:47.385Z,71.88
2023-01-11T03:47:20.807Z,71.99
2023-01-11T03:50:12.358Z,72.17
2023-01-11T03:52:45.003Z,72.09
2023-01-11T03:55:19.186Z,71.88
2023-01-11T03:57:52.797Z,71.74
2023-01-11T04:00:24.463Z,71.57
2023-01-11T04:02:57.674Z,71.35
2023-01-11T04:05:27.926Z,71.49
2023-01-11T04:07:57.996Z,69.91
2023-01-11T04:10:28.162Z,68.91
2023-01-11T04:12:58.372Z,68.88
2023-01-11T04:15:28.865Z,68.76
2023-01-11T04:18:06.187Z,68.84
2023-01-11T04:20:39.421Z,69.88
2023-01-11T04:23:11.632Z,70.70
2023-01-11T04:25:42.942Z,71.23
2023-01-11T04:28:13.139Z,71.42
2023-01-11T04:30:43.279Z,72.98
2023-01-11T04:33:14.430Z,73.02
2023-01-11T04:35:45.842Z,74.69
2023-01-11T04:38:18.317Z,73.94
2023-01-11T04:40:49.807Z,74.76
2023-01-11T04:43:20.222Z,74.78
2023-01-11T04:45:50.777Z,73.94
2023-01-11T04:48:20.895Z,73.26
2023-01-11T04:50:51.144Z,73.51
2023-01-11T04:53:21.463Z,73.32
2023-01-11T04:55:51.427Z,73.33
2023-01-11T04:58:22.784Z,73.47
2023-01-11T05:00:52.904Z,75.98
2023-01-11T05:03:22.903Z,75.94
2023-01-11T05:06:02.669Z,75.53
2023-01-11T05:08:33.041Z,76.74
2023-01-11T05:11:07.566Z,76.54
2023-01-11T05:13:43.390Z,75.95
2023-01-11T05:16:20.834Z,76.13
2023-01-11T05:19:01.801Z,75.78
2023-01-11T05:21:37.503Z,75.28
2023-01-11T05:24:17.190Z,75.97
2023-01-11T05:26:49.576Z,75.90
2023-01-11T05:29:21.940Z,75.16
2023-01-11T05:31:52.301Z,75.84
2023-01-11T05:34:22.880Z,76.33
2023-01-11T05:36:54.545Z,76.65
2023-01-11T05:39:25.068Z,78.17
2023-01-11T05:41:55.224Z,78.18
2023-01-11T05:44:43.564Z,77.27
2023-01-11T05:47:13.722Z,78.48
2023-01-11T05:49:43.764Z,78.39
2023-01-11T05:52:13.964Z,78.58
2023-01-11T05:54:43.968Z,78.13
2023-01-11T05:57:14.155Z,78.62
2023-01-11T05:59:44.094Z,78.95
2023-01-11T06:02:14.404Z,79.48
2023-01-11T06:04:44.476Z,78.95
2023-01-11T06:07:14.607Z,80.28
2023-01-11T06:09:44.686Z,80.23
2023-01-11T06:12:14.843Z,80.61
2023-01-11T06:14:44.821Z,80.54
2023-01-11T06:17:14.958Z,80.21
2023-01-11T06:19:44.951Z,79.67
2023-01-11T06:22:15.088Z,79.02
2023-01-11T06:24:45.101Z,79.44
2023-01-11T06:27:15.242Z,79.62
2023-01-11T06:29:45.281Z,79.62
2023-01-11T06:32:15.399Z,80.13
2023-01-11T06:34:45.337Z,80.22
2023-01-11T06:37:15.696Z,80.61
2023-01-11T06:39:45.626Z,80.53
2023-01-11T06:42:15.837Z,80.34
2023-01-11T06:44:45.824Z,80.58
2023-01-11T06:47:16.181Z,80.64
2023-01-11T06:49:46.265Z,80.76
2023-01-11T06:52:16.408Z,80.86
2023-01-11T06:54:46.396Z,81.02
2023-01-11T06:57:16.588Z,80.66
2023-01-11T06:59:46.513Z,80.80
2023-01-11T07:02:16.763Z,80.52
2023-01-11T07:04:46.837Z,79.82
2023-01-11T07:07:17.039Z,78.84
2023-01-11T07:09:47.012Z,77.65
2023-01-11T07:12:17.199Z,77.21
2023-01-11T07:14:47.116Z,76.55
2023-01-11T07:17:17.317Z,75.84
2023-01-11T07:19:47.288Z,75.65
2023-01-11T07:22:17.438Z,74.89
2023-01-11T07:24:48.526Z,74.66
2023-01-11T07:27:18.888Z,73.89
2023-01-11T07:29:49.170Z,73.35
2023-01-11T07:32:19.272Z,72.83
2023-01-11T07:34:49.229Z,72.52
2023-01-11T07:37:29.112Z,72.20
2023-01-11T07:39:59.824Z,72.63
2023-01-11T07:42:48.091Z,71.77
2023-01-11T07:45:18.653Z,72.15
2023-01-11T07:47:53.215Z,71.69
2023-01-11T07:50:23.579Z,71.31
2023-01-11T07:52:53.499Z,71.68
2023-01-11T07:55:23.994Z,71.40
2023-01-11T07:57:57.524Z,71.32
2023-01-11T08:00:27.923Z,71.16
2023-01-11T08:03:23.865Z,71.76
2023-01-11T08:05:55.342Z,71.75
2023-01-11T08:08:28.614Z,72.59
2023-01-11T08:11:16.970Z,72.72
2023-01-11T08:14:05.515Z,72.63
2023-01-11T08:16:35.646Z,73.15
2023-01-11T08:19:06.614Z,73.22
2023-01-11T08:21:36.960Z,72.87
2023-01-11T08:24:08.345Z,73.09
2023-01-11T08:26:38.738Z,73.78
2023-01-11T08:29:08.981Z,73.76
2023-01-11T08:31:39.504Z,74.10
2023-01-11T08:34:10.381Z,74.33
2023-01-11T08:36:41.160Z,74.38
2023-01-11T08:39:12.212Z,74.59
2023-01-11T08:41:42.634Z,74.42
2023-01-11T08:44:14.831Z,74.63
2023-01-11T08:46:45.887Z,74.71
2023-01-11T08:49:16.367Z,74.80
2023-01-11T08:51:46.370Z,74.88
2023-01-11T08:54:18.713Z,74.94
2023-01-11T08:56:48.824Z,74.32
2023-01-11T08:59:20.968Z,74.27
2023-01-11T09:01:51.394Z,74.43
2023-01-11T09:04:25.213Z,74.00
2023-01-11T09:06:56.135Z,73.80
2023-01-11T09:09:26.301Z,73.61
2023-01-11T09:11:58.340Z,73.30
2023-01-11T09:14:30.640Z,73.51
2023-01-11T09:17:01.043Z,73.46
2023-01-11T09:19:31.460Z,73.50
2023-01-11T09:22:04.229Z,73.29
2023-01-11T09:24:34.486Z,73.21
2023-01-11T09:27:05.990Z,73.10
2023-01-11T09:29:37.528Z,73.01
2023-01-11T09:32:08.091Z,73.21
2023-01-11T09:34:38.135Z,72.97
2023-01-11T09:37:08.363Z,72.70
2023-01-11T09:39:40.523Z,72.81
2023-01-11T09:42:40.820Z,72.81
2023-01-11T09:45:15.540Z,72.17
2023-01-11T09:47:52.479Z,72.74
2023-01-11T09:50:27.119Z,73.35
2023-01-11T09:53:10.436Z,73.24
2023-01-11T09:55:53.258Z,73.23
2023-01-11T09:58:54.653Z,73.47
2023-01-11T10:02:00.879Z,73.94
2023-01-11T10:05:10.923Z,73.61
2023-01-11T10:18:29.104Z,49.56
2023-01-11T10:18:31.654Z,51.51
2023-01-11T10:20:44.979Z,49.13
2023-01-11T10:23:26.596Z,48.52
2023-01-11T10:25:59.823Z,49.45
2023-01-11T10:28:48.231Z,49.92
2023-01-11T10:31:45.999Z,51.54
2023-01-11T10:34:44.175Z,52.99
2023-01-11T10:37:27.323Z,55.42
2023-01-11T10:40:22.785Z,56.44
2023-01-11T10:43:17.986Z,57.05
2023-01-11T10:45:55.945Z,57.53
2023-01-11T10:48:40.234Z,60.08
2023-01-11T10:51:30.577Z,61.15
2023-01-11T10:54:28.171Z,61.92
2023-01-11T10:57:30.268Z,63.23
2023-01-11T11:00:10.070Z,63.21
2023-01-11T11:02:49.411Z,62.82
2023-01-11T11:05:35.152Z,62.73
2023-01-11T11:08:34.938Z,63.70
2023-01-11T11:11:15.245Z,65.62
2023-01-11T11:14:08.093Z,66.90
2023-01-11T11:16:49.373Z,67.34
2023-01-11T11:19:24.990Z,66.94
2023-01-11T11:21:56.829Z,67.95
2023-01-11T11:24:49.988Z,67.06
2023-01-11T11:27:34.684Z,68.36
2023-01-11T11:30:05.671Z,69.07
2023-01-11T11:32:41.425Z,70.36
2023-01-11T11:35:42.138Z,69.82
2023-01-11T11:38:24.704Z,70.58
2023-01-11T11:41:06.617Z,71.15
2023-01-11T11:43:48.408Z,71.94
2023-01-11T11:46:20.565Z,72.57
2023-01-11T11:49:14.359Z,71.10
2023-01-11T11:51:47.091Z,72.86
2023-01-11T11:54:34.444Z,71.78
2023-01-11T11:57:23.261Z,72.00
2023-01-11T12:00:04.750Z,70.99
2023-01-11T12:02:37.658Z,70.96
2023-01-11T12:05:11.419Z,70.81
2023-01-11T12:07:55.177Z,69.54
2023-01-11T12:10:31.600Z,71.60
2023-01-11T12:13:06.518Z,70.97
2023-01-11T12:15:37.096Z,69.03
2023-01-11T12:18:39.303Z,70.09
2023-01-11T12:25:07.845Z,69.33
2023-01-11T12:28:02.959Z,70.18
2023-01-11T12:30:54.422Z,69.80
2023-01-11T12:33:24.740Z,71.47
2023-01-11T12:35:54.834Z,71.80
2023-01-11T12:39:01.851Z,70.87
2023-01-11T12:41:59.862Z,71.67
2023-01-11T12:44:42.783Z,71.04
2023-01-11T12:47:41.533Z,70.40
2023-01-11T12:50:21.046Z,69.26
2023-01-11T12:53:02.732Z,70.37
2023-01-11T12:56:16.906Z,70.02
2023-01-11T12:58:59.700Z,69.28
2023-01-11T13:02:01.751Z,69.19
2023-01-11T13:04:53.051Z,69.19
2023-01-11T13:07:50.931Z,69.75
2023-01-11T13:10:38.434Z,69.41
2023-01-11T13:13:26.529Z,67.68
2023-01-11T13:16:21.593Z,69.02
2023-01-11T13:19:08.830Z,69.28
2023-01-11T13:21:54.401Z,69.02
2023-01-11T13:24:27.723Z,69.88
2023-01-11T13:27:07.335Z,71.13
2023-01-11T13:29:42.042Z,71.11
2023-01-11T13:32:24.693Z,70.52
2023-01-11T13:35:05.207Z,69.52
2023-01-11T13:38:03.079Z,70.46
2023-01-11T13:40:47.810Z,69.56
2023-01-11T13:43:48.324Z,69.21
2023-01-11T13:46:49.195Z,69.83
2023-01-11T13:49:56.039Z,69.26
2023-01-11T13:53:11.276Z,69.31
2023-01-11T13:55:59.423Z,69.48
2023-01-11T13:58:50.715Z,69.08
2023-01-11T14:01:33.929Z,70.36
2023-01-11T14:04:23.967Z,69.26
2023-01-11T14:07:21.106Z,69.57
2023-01-11T14:09:57.109Z,68.97
2023-01-11T14:13:02.638Z,68.74
2023-01-11T14:15:54.981Z,69.39
2023-01-11T14:18:49.406Z,68.97
2023-01-11T14:21:36.197Z,68.52
2023-01-11T14:24:07.950Z,68.94
2023-01-11T14:26:50.545Z,68.47
2023-01-11T14:29:39.379Z,68.33
2023-01-11T14:32:35.475Z,68.65
2023-01-11T14:35:24.102Z,68.77
2023-01-11T14:38:16.398Z,67.92
2023-01-11T14:40:57.103Z,68.64
2023-01-11T14:44:04.562Z,67.81
2023-01-11T14:46:54.155Z,69.43
2023-01-11T14:49:44.787Z,68.62
2023-01-11T14:52:38.119Z,68.27
2023-01-11T14:55:33.409Z,67.23
2023-01-11T14:58:35.419Z,67.05
2023-01-11T15:01:11.266Z,66.84
2023-01-11T15:03:46.540Z,67.61
2023-01-11T15:06:21.530Z,67.00
2023-01-11T15:08:55.401Z,66.47
2023-01-11T15:11:36.396Z,66.42
2023-01-11T15:14:09.984Z,65.20
2023-01-11T15:16:59.499Z,65.42
2023-01-11T15:19:38.910Z,65.95
2023-01-11T15:22:21.214Z,64.81
2023-01-11T15:24:59.729Z,66.25
2023-01-11T15:27:39.732Z,66.74
2023-01-11T15:30:32.613Z,66.82
2023-01-11T15:33:29.332Z,66.01
2023-01-11T15:35:59.444Z,66.18
2023-01-11T15:38:36.459Z,65.21
2023-01-11T15:41:38.491Z,65.86
2023-01-11T15:44:17.410Z,65.27
2023-01-11T15:47:24.131Z,64.50
2023-01-11T15:50:24.829Z,65.26
2023-01-11T15:53:24.496Z,64.35
2023-01-11T15:56:18.132Z,63.88
2023-01-11T15:58:53.644Z,64.08
2023-01-11T16:01:30.266Z,63.73
2023-01-11T16:04:03.551Z,64.04
2023-01-11T16:06:52.075Z,64.18
2023-01-11T16:09:42.400Z,63.85
2023-01-11T16:12:23.668Z,63.68
2023-01-11T16:14:56.189Z,62.66
2023-01-11T16:17:27.948Z,62.08
2023-01-11T16:19:58.200Z,62.72
2023-01-11T16:22:29.961Z,61.00
2023-01-11T16:25:03.503Z,60.64
2023-01-11T16:27:36.932Z,61.14
2023-01-11T16:30:08.600Z,61.43
2023-01-11T16:32:38.919Z,60.24
2023-01-11T16:35:20.301Z,59.91
2023-01-11T16:37:54.988Z,57.88
2023-01-11T16:40:31.218Z,59.58
2023-01-11T16:43:29.277Z,61.26
2023-01-11T16:45:59.669Z,60.18
2023-01-11T16:48:31.606Z,60.42
2023-01-11T16:51:15.559Z,60.88
2023-01-11T16:53:55.007Z,60.06
2023-01-11T16:56:25.953Z,60.89
2023-01-11T16:59:35.857Z,61.27
2023-01-11T17:02:25.798Z,59.43
2023-01-11T17:04:55.993Z,60.54
2023-01-11T17:07:29.907Z,61.62
2023-01-11T17:10:26.371Z,63.03
2023-01-11T17:13:54.569Z,60.97
2023-01-11T17:16:39.315Z,58.16
2023-01-11T17:19:21.815Z,58.46
2023-01-11T17:21:56.236Z,57.26
2023-01-11T17:24:28.190Z,57.79
2023-01-11T17:27:09.002Z,57.26
2023-01-11T17:29:43.981Z,57.50
2023-01-11T17:32:20.356Z,57.81
2023-01-11T17:34:53.085Z,60.66
2023-01-11T17:37:24.075Z,59.43
2023-01-11T17:40:26.054Z,59.91
2023-01-11T17:43:38.495Z,58.82
2023-01-11T17:46:24.286Z,60.13
2023-01-11T17:49:09.586Z,58.30
2023-01-11T17:51:42.992Z,59.62
2023-01-11T17:54:23.830Z,59.26
2023-01-11T17:57:00.588Z,60.81
2023-01-11T17:59:32.534Z,59.84
2023-01-11T18:02:06.267Z,59.67
2023-01-11T18:04:36.504Z,61.12
2023-01-11T18:07:15.158Z,60.64
2023-01-11T18:09:49.325Z,60.96
2023-01-11T18:12:27.536Z,59.59
2023-01-11T18:15:01.625Z,60.05
2023-01-11T18:17:37.923Z,60.24
2023-01-11T18:20:17.275Z,61.44
2023-01-11T18:23:04.838Z,60.39
2023-01-11T18:25:39.296Z,59.43
2023-01-11T18:28:31.340Z,60.01
2023-01-11T18:31:10.042Z,60.35
2023-01-11T18:33:43.412Z,61.09
2023-01-11T18:36:23.182Z,60.74
2023-01-11T18:38:54.147Z,60.25
2023-01-11T18:41:44.732Z,60.02
2023-01-11T18:44:17.437Z,61.29
2023-01-11T18:47:17.749Z,60.94
2023-01-11T18:49:48.603Z,60.91
2023-01-11T18:52:19.757Z,60.95
2023-01-11T18:54:52.381Z,61.18
2023-01-11T18:57:24.222Z,61.38
2023-01-11T18:59:54.418Z,61.07
2023-01-11T19:02:30.248Z,62.23
2023-01-11T19:05:00.549Z,61.77
2023-01-11T19:07:30.384Z,61.71
2023-01-11T19:10:00.577Z,62.39
2023-01-11T19:12:30.479Z,61.91
2023-01-11T19:15:00.715Z,61.90
2023-01-11T19:17:30.599Z,62.06
2023-01-11T19:20:00.777Z,61.00
2023-01-11T19:22:30.639Z,61.99
2023-01-11T19:25:00.973Z,62.08
2023-01-11T19:27:30.951Z,62.69
2023-01-11T19:30:08.562Z,63.12
2023-01-11T19:33:09.936Z,63.92
2023-01-11T19:35:53.471Z,63.59
2023-01-11T19:38:28.778Z,63.23
2023-01-11T19:41:05.858Z,63.24
2023-01-11T19:43:55.791Z,63.33
2023-01-11T19:46:47.068Z,63.03
2023-01-11T19:49:33.248Z,63.15
2023-01-11T19:52:42.790Z,63.76
2023-01-11T19:55:18.981Z,63.42
2023-01-11T19:57:52.770Z,64.33
2023-01-11T20:00:29.337Z,62.91
2023-01-11T20:03:10.447Z,64.45
2023-01-11T20:05:51.204Z,63.62
2023-01-11T20:08:26.417Z,64.22
2023-01-11T20:11:07.628Z,64.87
2023-01-11T20:13:41.619Z,65.76
2023-01-11T20:16:19.723Z,66.34
2023-01-11T20:19:00.748Z,66.05
2023-01-11T20:21:36.175Z,65.97
2023-01-11T20:24:12.936Z,66.26
2023-01-11T20:26:46.882Z,65.66
2023-01-11T20:29:19.672Z,66.55
2023-01-11T20:32:41.753Z,66.26
2023-01-11T20:35:16.957Z,66.49
2023-01-11T20:37:50.062Z,66.69
2023-01-11T20:40:45.340Z,66.32
2023-01-11T20:43:29.912Z,67.74
2023-01-11T20:46:04.326Z,66.60
2023-01-11T20:48:43.659Z,67.58
2023-01-11T20:54:28.295Z,67.86
2023-01-11T20:57:05.721Z,67.83
2023-01-11T20:59:39.396Z,68.79
2023-01-11T21:02:15.579Z,69.00
2023-01-11T21:04:47.558Z,67.76
2023-01-11T21:07:20.842Z,68.84
2023-01-11T21:09:52.371Z,68.55
2023-01-11T21:12:26.325Z,68.45
2023-01-11T21:14:59.346Z,69.20
2023-01-11T21:17:32.911Z,69.45
2023-01-11T21:20:11.993Z,69.84
2023-01-11T21:22:44.430Z,70.20
2023-01-11T21:25:20.011Z,71.00
2023-01-11T21:28:03.093Z,70.83
2023-01-11T21:30:34.565Z,71.35
2023-01-11T21:33:04.608Z,71.14
2023-01-11T21:35:42.359Z,71.88
2023-01-11T21:38:19.461Z,72.85
2023-01-11T21:40:52.157Z,72.58
2023-01-11T21:43:38.228Z,72.58
2023-01-11T21:46:16.659Z,72.38
2023-01-11T21:48:47.982Z,71.82
2023-01-11T21:51:21.186Z,72.05
2023-01-11T22:12:33.680Z,76.21
2023-01-11T22:15:50.671Z,74.72
2023-01-11T22:18:21.469Z,76.02
2023-01-11T22:20:51.227Z,76.48
2023-01-11T22:23:22.548Z,76.60
2023-01-11T22:25:52.707Z,76.77
2023-01-11T22:28:24.635Z,76.45
2023-01-11T22:30:54.776Z,76.86
2023-01-11T22:33:26.506Z,77.16
2023-01-11T22:35:57.748Z,77.22
2023-01-11T22:38:27.772Z,77.49
2023-01-11T22:41:01.485Z,76.47
2023-01-11T22:43:31.695Z,76.33
2023-01-11T22:46:04.141Z,75.72
2023-01-11T22:48:35.623Z,76.46
2023-01-11T22:51:12.137Z,76.81
2023-01-11T22:53:45.169Z,77.05
2023-01-11T22:56:19.865Z,77.76
2023-01-11T22:58:51.851Z,78.11
2023-01-11T23:01:28.567Z,78.30
2023-01-11T23:04:03.499Z,78.66
2023-01-11T23:06:36.525Z,78.68
2023-01-11T23:09:08.973Z,78.89
2023-01-11T23:11:58.817Z,78.95
2023-01-11T23:14:33.972Z,79.06
2023-01-11T23:17:08.888Z,79.55
2023-01-11T23:19:41.631Z,79.66
2023-01-11T23:22:11.729Z,79.71
2023-01-11T23:24:42.281Z,79.71
2023-01-11T23:27:13.051Z,79.82
2023-01-11T23:29:43.062Z,79.68
2023-01-11T23:32:12.867Z,79.44
2023-01-11T23:34:43.112Z,80.17
2023-01-11T23:53:16.184Z,80.72
2023-01-11T23:55:46.567Z,80.79
2023-01-11T23:58:16.426Z,80.71
